createdAt,value
2022-10-04T13:57:00.010Z,28.22
2022-10-04T13:58:01.894Z,28.22
2022-10-04T13:59:14.577Z,28.28
2022-10-04T14:00:16.508Z,28.32
2022-10-04T14:01:29.119Z,28.35
2022-10-04T14:02:40.780Z,28.38
2022-10-04T14:03:53.068Z,28.42
2022-10-04T14:04:54.963Z,28.45
2022-10-04T14:06:07.563Z,28.47
2022-10-04T14:07:19.183Z,28.54
2022-10-04T14:08:31.572Z,28.52
2022-10-04T14:09:34.459Z,28.58
2022-10-04T14:10:47.054Z,28.61
2022-10-04T14:12:03.235Z,28.64
2022-10-04T14:13:07.086Z,28.65
2022-10-04T14:14:18.752Z,28.69
2022-10-04T14:15:21.568Z,28.71
2022-10-04T14:16:33.275Z,28.75
2022-10-04T14:17:45.587Z,28.78
2022-10-04T14:18:47.462Z,28.85
2022-10-04T14:20:00.131Z,28.83
2022-10-04T14:21:16.615Z,28.85
2022-10-04T14:22:21.585Z,28.85
2022-10-04T14:23:33.346Z,28.85
2022-10-04T14:24:45.583Z,28.86
2022-10-04T14:25:47.380Z,28.85
2022-10-04T14:27:00.111Z,28.8
2022-10-04T14:28:12.819Z,28.75
2022-10-04T14:29:15.563Z,28.75
2022-10-04T14:30:27.234Z,28.72
2022-10-04T14:31:39.581Z,28.72
2022-10-04T14:32:51.335Z,28.69
2022-10-04T14:33:54.102Z,28.65
2022-10-04T14:35:05.790Z,28.62
2022-10-04T14:36:18.606Z,28.59
2022-10-04T14:37:30.350Z,28.56
2022-10-04T14:38:33.051Z,28.48
2022-10-04T14:39:44.749Z,28.4
2022-10-04T14:40:57.098Z,28.34
2022-10-04T14:42:08.814Z,28.27
2022-10-04T14:43:11.559Z,28.27
2022-10-04T14:44:23.290Z,28.22
2022-10-04T14:45:35.667Z,28.22
2022-10-04T14:46:47.452Z,28.18
2022-10-04T14:47:50.064Z,28.13
2022-10-04T14:49:01.800Z,28.07
2022-10-04T14:50:14.596Z,28.04
2022-10-04T14:51:26.356Z,28.0
2022-10-04T14:52:29.063Z,28.03
2022-10-04T14:53:40.840Z,28.05
2022-10-04T14:54:53.597Z,28.03
2022-10-04T14:55:55.494Z,28.03
2022-10-04T14:57:08.116Z,27.98
2022-10-04T14:58:19.891Z,27.97
2022-10-04T14:59:32.595Z,27.88
2022-10-04T15:00:35.538Z,27.8
2022-10-04T15:01:48.128Z,27.71
2022-10-04T15:03:05.164Z,27.6
2022-10-04T15:04:08.644Z,27.54
2022-10-04T15:05:20.533Z,27.5
2022-10-04T15:06:23.114Z,27.43
2022-10-04T15:07:34.924Z,27.35
2022-10-04T15:08:47.589Z,27.32
2022-10-04T15:09:59.409Z,27.25
2022-10-04T15:11:02.101Z,27.25
2022-10-04T15:12:32.435Z,27.23
